sensor_id;sensor_type;location;lat;lon;timestamp;P1;durP1;ratioP1;P2;durP2;ratioP2
5303;SDS011;2674;49.722;10.892;2023-09-12T00:01:41;10.07;;;7.83;;
5303;SDS011;2674;49.722;10.892;2023-09-12T00:04:07;16.93;;;9.07;;
5303;SDS011;2674;49.722;10.892;2023-09-12T00:06:33;11.77;;;8.30;;
5303;SDS011;2674;49.722;10.892;2023-09-12T00:08:59;20.50;;;9.23;;
5303;SDS011;2674;49.722;10.892;2023-09-12T00:11:24;9.47;;;7.47;;
5303;SDS011;2674;49.722;10.892;2023-09-12T00:13:51;12.53;;;8.73;;
5303;SDS011;2674;49.722;10.892;2023-09-12T00:16:17;12.40;;;8.33;;
5303;SDS011;2674;49.722;10.892;2023-09-12T00:18:43;10.43;;;8.30;;
5303;SDS011;2674;49.722;10.892;2023-09-12T00:21:09;11.33;;;8.13;;
5303;SDS011;2674;49.722;10.892;2023-09-12T00:23:35;10.67;;;8.70;;
5303;SDS011;2674;49.722;10.892;2023-09-12T00:26:00;11.57;;;8.23;;
5303;SDS011;2674;49.722;10.892;2023-09-12T00:28:26;12.87;;;7.97;;
5303;SDS011;2674;49.722;10.892;2023-09-12T00:30:52;14.27;;;9.40;;
5303;SDS011;2674;49.722;10.892;2023-09-12T00:33:18;9.90;;;8.00;;
5303;SDS011;2674;49.722;10.892;2023-09-12T00:35:44;12.10;;;7.53;;
5303;SDS011;2674;49.722;10.892;2023-09-12T00:38:10;15.33;;;9.27;;
5303;SDS011;2674;49.722;10.892;2023-09-12T00:40:36;12.27;;;9.27;;
5303;SDS011;2674;49.722;10.892;2023-09-12T00:43:03;12.43;;;9.40;;
5303;SDS011;2674;49.722;10.892;2023-09-12T00:45:29;12.90;;;8.90;;
5303;SDS011;2674;49.722;10.892;2023-09-12T00:47:55;14.50;;;8.67;;
5303;SDS011;2674;49.722;10.892;2023-09-12T00:50:23;12.97;;;8.47;;
5303;SDS011;2674;49.722;10.892;2023-09-12T00:52:50;13.40;;;8.23;;
5303;SDS011;2674;49.722;10.892;2023-09-12T00:55:17;10.57;;;8.80;;
5303;SDS011;2674;49.722;10.892;2023-09-12T00:57:43;12.60;;;8.37;;
5303;SDS011;2674;49.722;10.892;2023-09-12T01:00:11;9.07;;;6.80;;
5303;SDS011;2674;49.722;10.892;2023-09-12T01:02:38;10.53;;;8.00;;
5303;SDS011;2674;49.722;10.892;2023-09-12T01:05:08;12.40;;;7.10;;
5303;SDS011;2674;49.722;10.892;2023-09-12T01:07:36;14.33;;;8.50;;
5303;SDS011;2674;49.722;10.892;2023-09-12T01:10:02;15.43;;;8.53;;
5303;SDS011;2674;49.722;10.892;2023-09-12T01:12:29;8.93;;;6.93;;
5303;SDS011;2674;49.722;10.892;2023-09-12T01:14:55;12.83;;;7.27;;
5303;SDS011;2674;49.722;10.892;2023-09-12T01:17:21;11.97;;;8.53;;
5303;SDS011;2674;49.722;10.892;2023-09-12T01:19:48;12.57;;;8.80;;
5303;SDS011;2674;49.722;10.892;2023-09-12T01:22:17;12.13;;;8.00;;
5303;SDS011;2674;49.722;10.892;2023-09-12T01:27:51;11.53;;;8.50;;
5303;SDS011;2674;49.722;10.892;2023-09-12T01:30:22;10.10;;;7.77;;
5303;SDS011;2674;49.722;10.892;2023-09-12T01:32:50;12.70;;;8.83;;
5303;SDS011;2674;49.722;10.892;2023-09-12T01:35:17;12.53;;;8.10;;
5303;SDS011;2674;49.722;10.892;2023-09-12T01:37:43;10.00;;;7.83;;
5303;SDS011;2674;49.722;10.892;2023-09-12T01:40:09;10.20;;;7.60;;
5303;SDS011;2674;49.722;10.892;2023-09-12T01:42:40;10.43;;;7.37;;
5303;SDS011;2674;49.722;10.892;2023-09-12T01:45:09;19.93;;;8.60;;
5303;SDS011;2674;49.722;10.892;2023-09-12T01:47:38;14.17;;;8.50;;
5303;SDS011;2674;49.722;10.892;2023-09-12T01:50:07;11.87;;;8.80;;
5303;SDS011;2674;49.722;10.892;2023-09-12T01:52:34;12.17;;;8.23;;
5303;SDS011;2674;49.722;10.892;2023-09-12T01:55:01;13.57;;;9.17;;
5303;SDS011;2674;49.722;10.892;2023-09-12T01:57:27;16.73;;;8.20;;
5303;SDS011;2674;49.722;10.892;2023-09-12T01:59:54;12.30;;;9.30;;
5303;SDS011;2674;49.722;10.892;2023-09-12T02:02:20;14.73;;;8.13;;
5303;SDS011;2674;49.722;10.892;2023-09-12T02:04:51;17.17;;;8.07;;
5303;SDS011;2674;49.722;10.892;2023-09-12T02:07:36;9.10;;;7.33;;
5303;SDS011;2674;49.722;10.892;2023-09-12T02:10:03;11.43;;;7.70;;
5303;SDS011;2674;49.722;10.892;2023-09-12T02:12:31;10.63;;;7.57;;
5303;SDS011;2674;49.722;10.892;2023-09-12T02:14:57;14.93;;;7.60;;
5303;SDS011;2674;49.722;10.892;2023-09-12T02:17:23;11.30;;;8.50;;
5303;SDS011;2674;49.722;10.892;2023-09-12T02:19:48;14.53;;;8.37;;
5303;SDS011;2674;49.722;10.892;2023-09-12T02:22:14;11.43;;;7.93;;
5303;SDS011;2674;49.722;10.892;2023-09-12T02:24:40;11.43;;;7.50;;
5303;SDS011;2674;49.722;10.892;2023-09-12T02:27:06;9.00;;;6.33;;
5303;SDS011;2674;49.722;10.892;2023-09-12T02:29:32;11.37;;;7.23;;
5303;SDS011;2674;49.722;10.892;2023-09-12T02:31:59;13.67;;;8.00;;
5303;SDS011;2674;49.722;10.892;2023-09-12T02:34:24;9.57;;;7.77;;
5303;SDS011;2674;49.722;10.892;2023-09-12T02:36:50;10.10;;;8.30;;
5303;SDS011;2674;49.722;10.892;2023-09-12T02:39:16;12.17;;;7.60;;
5303;SDS011;2674;49.722;10.892;2023-09-12T02:41:42;9.17;;;7.50;;
5303;SDS011;2674;49.722;10.892;2023-09-12T02:44:08;12.40;;;7.77;;
5303;SDS011;2674;49.722;10.892;2023-09-12T02:46:34;9.57;;;6.50;;
5303;SDS011;2674;49.722;10.892;2023-09-12T02:49:01;13.43;;;8.13;;
5303;SDS011;2674;49.722;10.892;2023-09-12T02:51:27;11.30;;;9.00;;
5303;SDS011;2674;49.722;10.892;2023-09-12T02:53:53;10.70;;;8.17;;
5303;SDS011;2674;49.722;10.892;2023-09-12T02:56:19;11.73;;;8.10;;
5303;SDS011;2674;49.722;10.892;2023-09-12T02:58:48;12.83;;;8.23;;
5303;SDS011;2674;49.722;10.892;2023-09-12T03:01:15;12.40;;;8.03;;
5303;SDS011;2674;49.722;10.892;2023-09-12T03:03:42;10.97;;;8.33;;
5303;SDS011;2674;49.722;10.892;2023-09-12T03:06:11;11.57;;;8.33;;
5303;SDS011;2674;49.722;10.892;2023-09-12T03:08:39;14.73;;;8.03;;
5303;SDS011;2674;49.722;10.892;2023-09-12T03:11:05;17.10;;;8.10;;
5303;SDS011;2674;49.722;10.892;2023-09-12T03:13:32;9.80;;;7.40;;
5303;SDS011;2674;49.722;10.892;2023-09-12T03:15:59;10.13;;;7.30;;
5303;SDS011;2674;49.722;10.892;2023-09-12T03:18:25;12.27;;;8.30;;
5303;SDS011;2674;49.722;10.892;2023-09-12T03:20:51;12.70;;;8.37;;
5303;SDS011;2674;49.722;10.892;2023-09-12T03:23:18;11.20;;;7.50;;
5303;SDS011;2674;49.722;10.892;2023-09-12T03:25:45;11.17;;;7.80;;
5303;SDS011;2674;49.722;10.892;2023-09-12T03:28:10;12.17;;;8.13;;
5303;SDS011;2674;49.722;10.892;2023-09-12T03:30:37;10.37;;;7.50;;
5303;SDS011;2674;49.722;10.892;2023-09-12T03:33:03;12.53;;;8.87;;
5303;SDS011;2674;49.722;10.892;2023-09-12T03:35:31;9.40;;;7.43;;
5303;SDS011;2674;49.722;10.892;2023-09-12T03:37:58;11.60;;;8.50;;
5303;SDS011;2674;49.722;10.892;2023-09-12T03:40:24;16.70;;;9.87;;
5303;SDS011;2674;49.722;10.892;2023-09-12T03:42:49;12.33;;;8.33;;
5303;SDS011;2674;49.722;10.892;2023-09-12T03:45:15;16.63;;;9.63;;
5303;SDS011;2674;49.722;10.892;2023-09-12T03:47:41;12.07;;;8.70;;
5303;SDS011;2674;49.722;10.892;2023-09-12T03:50:08;17.23;;;10.70;;
5303;SDS011;2674;49.722;10.892;2023-09-12T03:52:34;25.13;;;10.00;;
5303;SDS011;2674;49.722;10.892;2023-09-12T03:55:00;23.17;;;10.93;;
5303;SDS011;2674;49.722;10.892;2023-09-12T03:57:26;16.70;;;9.60;;
5303;SDS011;2674;49.722;10.892;2023-09-12T03:59:52;17.60;;;10.30;;
5303;SDS011;2674;49.722;10.892;2023-09-12T04:02:18;12.10;;;9.30;;
5303;SDS011;2674;49.722;10.892;2023-09-12T04:04:44;13.17;;;9.10;;
5303;SDS011;2674;49.722;10.892;2023-09-12T04:07:09;10.50;;;7.57;;
5303;SDS011;2674;49.722;10.892;2023-09-12T04:09:35;10.27;;;8.03;;
5303;SDS011;2674;49.722;10.892;2023-09-12T04:12:01;16.60;;;8.13;;
5303;SDS011;2674;49.722;10.892;2023-09-12T04:14:27;11.57;;;9.10;;
5303;SDS011;2674;49.722;10.892;2023-09-12T04:16:53;13.63;;;8.90;;
5303;SDS011;2674;49.722;10.892;2023-09-12T04:19:19;12.40;;;9.80;;
5303;SDS011;2674;49.722;10.892;2023-09-12T04:21:44;15.50;;;10.03;;
5303;SDS011;2674;49.722;10.892;2023-09-12T04:24:10;12.87;;;9.67;;
5303;SDS011;2674;49.722;10.892;2023-09-12T04:26:36;15.83;;;10.27;;
5303;SDS011;2674;49.722;10.892;2023-09-12T04:29:02;13.70;;;9.40;;
5303;SDS011;2674;49.722;10.892;2023-09-12T04:31:27;15.37;;;10.10;;
5303;SDS011;2674;49.722;10.892;2023-09-12T04:33:53;14.70;;;10.33;;
5303;SDS011;2674;49.722;10.892;2023-09-12T04:36:19;14.33;;;9.60;;
5303;SDS011;2674;49.722;10.892;2023-09-12T04:38:46;13.10;;;9.00;;
5303;SDS011;2674;49.722;10.892;2023-09-12T04:41:12;16.63;;;10.60;;
5303;SDS011;2674;49.722;10.892;2023-09-12T04:43:42;14.00;;;10.30;;
5303;SDS011;2674;49.722;10.892;2023-09-12T04:46:10;16.87;;;9.23;;
5303;SDS011;2674;49.722;10.892;2023-09-12T04:48:37;15.90;;;9.50;;
5303;SDS011;2674;49.722;10.892;2023-09-12T04:51:03;11.90;;;7.83;;
5303;SDS011;2674;49.722;10.892;2023-09-12T04:53:29;13.13;;;8.00;;
5303;SDS011;2674;49.722;10.892;2023-09-12T04:55:59;11.80;;;8.00;;
5303;SDS011;2674;49.722;10.892;2023-09-12T04:58:26;9.03;;;7.10;;
5303;SDS011;2674;49.722;10.892;2023-09-12T05:00:52;13.90;;;8.77;;
5303;SDS011;2674;49.722;10.892;2023-09-12T05:03:19;15.50;;;9.90;;
5303;SDS011;2674;49.722;10.892;2023-09-12T05:05:45;13.23;;;8.70;;
5303;SDS011;2674;49.722;10.892;2023-09-12T05:08:12;11.13;;;9.00;;
5303;SDS011;2674;49.722;10.892;2023-09-12T05:10:38;21.53;;;9.20;;
5303;SDS011;2674;49.722;10.892;2023-09-12T05:13:04;11.93;;;8.03;;
5303;SDS011;2674;49.722;10.892;2023-09-12T05:15:30;10.80;;;7.80;;
5303;SDS011;2674;49.722;10.892;2023-09-12T05:17:56;9.40;;;7.77;;
5303;SDS011;2674;49.722;10.892;2023-09-12T05:20:22;9.97;;;7.97;;
5303;SDS011;2674;49.722;10.892;2023-09-12T05:22:48;11.27;;;8.20;;
5303;SDS011;2674;49.722;10.892;2023-09-12T05:25:14;14.20;;;8.60;;
5303;SDS011;2674;49.722;10.892;2023-09-12T05:27:40;34.40;;;9.93;;
5303;SDS011;2674;49.722;10.892;2023-09-12T05:30:05;14.43;;;9.00;;
5303;SDS011;2674;49.722;10.892;2023-09-12T05:32:32;11.17;;;8.17;;
5303;SDS011;2674;49.722;10.892;2023-09-12T05:34:58;10.30;;;7.17;;
5303;SDS011;2674;49.722;10.892;2023-09-12T05:37:23;10.17;;;7.30;;
5303;SDS011;2674;49.722;10.892;2023-09-12T05:39:49;11.23;;;7.57;;
5303;SDS011;2674;49.722;10.892;2023-09-12T05:42:15;10.73;;;7.90;;
5303;SDS011;2674;49.722;10.892;2023-09-12T05:44:45;10.03;;;7.00;;
5303;SDS011;2674;49.722;10.892;2023-09-12T05:47:18;10.23;;;7.53;;
5303;SDS011;2674;49.722;10.892;2023-09-12T05:49:45;12.23;;;7.87;;
5303;SDS011;2674;49.722;10.892;2023-09-12T05:52:11;14.43;;;7.20;;
5303;SDS011;2674;49.722;10.892;2023-09-12T05:54:37;11.47;;;7.53;;
5303;SDS011;2674;49.722;10.892;2023-09-12T05:57:03;10.97;;;8.07;;
5303;SDS011;2674;49.722;10.892;2023-09-12T05:59:30;13.47;;;7.40;;
5303;SDS011;2674;49.722;10.892;2023-09-12T06:01:56;10.63;;;8.17;;
5303;SDS011;2674;49.722;10.892;2023-09-12T06:04:22;14.17;;;7.93;;
5303;SDS011;2674;49.722;10.892;2023-09-12T06:06:48;16.63;;;9.17;;
5303;SDS011;2674;49.722;10.892;2023-09-12T06:09:13;12.67;;;8.23;;
5303;SDS011;2674;49.722;10.892;2023-09-12T06:11:39;9.10;;;7.87;;
5303;SDS011;2674;49.722;10.892;2023-09-12T06:14:05;11.63;;;8.67;;
5303;SDS011;2674;49.722;10.892;2023-09-12T06:16:31;13.43;;;9.83;;
5303;SDS011;2674;49.722;10.892;2023-09-12T06:18:57;10.50;;;8.33;;
5303;SDS011;2674;49.722;10.892;2023-09-12T06:21:22;13.40;;;8.27;;
5303;SDS011;2674;49.722;10.892;2023-09-12T06:24:07;8.83;;;7.70;;
5303;SDS011;2674;49.722;10.892;2023-09-12T06:26:34;12.47;;;8.60;;
5303;SDS011;2674;49.722;10.892;2023-09-12T06:29:00;12.70;;;8.43;;
5303;SDS011;2674;49.722;10.892;2023-09-12T06:31:27;15.03;;;9.23;;
5303;SDS011;2674;49.722;10.892;2023-09-12T06:33:53;15.23;;;9.27;;
5303;SDS011;2674;49.722;10.892;2023-09-12T06:36:19;12.13;;;8.27;;
5303;SDS011;2674;49.722;10.892;2023-09-12T06:38:45;11.90;;;8.27;;
5303;SDS011;2674;49.722;10.892;2023-09-12T06:41:11;14.67;;;10.07;;
5303;SDS011;2674;49.722;10.892;2023-09-12T06:43:36;13.10;;;9.50;;
5303;SDS011;2674;49.722;10.892;2023-09-12T06:46:02;15.13;;;9.40;;
5303;SDS011;2674;49.722;10.892;2023-09-12T06:48:28;12.47;;;9.63;;
5303;SDS011;2674;49.722;10.892;2023-09-12T06:50:54;17.17;;;11.77;;
5303;SDS011;2674;49.722;10.892;2023-09-12T06:53:20;14.90;;;8.90;;
5303;SDS011;2674;49.722;10.892;2023-09-12T06:55:45;13.70;;;9.90;;
5303;SDS011;2674;49.722;10.892;2023-09-12T06:58:11;13.13;;;9.57;;
5303;SDS011;2674;49.722;10.892;2023-09-12T07:00:37;19.83;;;9.77;;
5303;SDS011;2674;49.722;10.892;2023-09-12T07:03:03;15.43;;;9.70;;
5303;SDS011;2674;49.722;10.892;2023-09-12T07:05:29;16.67;;;9.30;;
5303;SDS011;2674;49.722;10.892;2023-09-12T07:07:55;17.80;;;10.60;;
5303;SDS011;2674;49.722;10.892;2023-09-12T07:10:21;21.10;;;9.97;;
5303;SDS011;2674;49.722;10.892;2023-09-12T07:12:47;14.03;;;10.10;;
5303;SDS011;2674;49.722;10.892;2023-09-12T07:15:13;16.20;;;10.10;;
5303;SDS011;2674;49.722;10.892;2023-09-12T07:17:39;14.00;;;9.07;;
5303;SDS011;2674;49.722;10.892;2023-09-12T07:20:05;15.83;;;8.93;;
5303;SDS011;2674;49.722;10.892;2023-09-12T07:22:36;11.00;;;8.10;;
5303;SDS011;2674;49.722;10.892;2023-09-12T07:25:04;20.37;;;10.10;;
5303;SDS011;2674;49.722;10.892;2023-09-12T07:27:31;10.97;;;7.97;;
5303;SDS011;2674;49.722;10.892;2023-09-12T07:29:57;15.17;;;9.33;;
5303;SDS011;2674;49.722;10.892;2023-09-12T07:32:22;12.30;;;8.63;;
5303;SDS011;2674;49.722;10.892;2023-09-12T07:34:49;11.20;;;9.77;;
5303;SDS011;2674;49.722;10.892;2023-09-12T07:37:15;11.73;;;7.90;;
5303;SDS011;2674;49.722;10.892;2023-09-12T07:39:41;19.10;;;9.47;;
5303;SDS011;2674;49.722;10.892;2023-09-12T07:42:06;12.83;;;7.80;;
5303;SDS011;2674;49.722;10.892;2023-09-12T07:44:32;14.23;;;9.07;;
5303;SDS011;2674;49.722;10.892;2023-09-12T07:46:58;10.13;;;8.00;;
5303;SDS011;2674;49.722;10.892;2023-09-12T07:49:24;11.33;;;8.20;;
5303;SDS011;2674;49.722;10.892;2023-09-12T07:51:52;16.70;;;8.63;;
5303;SDS011;2674;49.722;10.892;2023-09-12T07:54:19;14.10;;;8.10;;
5303;SDS011;2674;49.722;10.892;2023-09-12T07:56:45;13.80;;;8.70;;
5303;SDS011;2674;49.722;10.892;2023-09-12T07:59:10;18.70;;;8.27;;
5303;SDS011;2674;49.722;10.892;2023-09-12T08:01:39;13.73;;;8.40;;
5303;SDS011;2674;49.722;10.892;2023-09-12T08:04:04;12.70;;;8.93;;
5303;SDS011;2674;49.722;10.892;2023-09-12T08:06:30;12.90;;;9.10;;
5303;SDS011;2674;49.722;10.892;2023-09-12T08:08:57;14.40;;;9.03;;
5303;SDS011;2674;49.722;10.892;2023-09-12T08:11:22;18.20;;;9.93;;
5303;SDS011;2674;49.722;10.892;2023-09-12T08:13:49;13.73;;;8.93;;
5303;SDS011;2674;49.722;10.892;2023-09-12T08:16:15;11.00;;;7.87;;
5303;SDS011;2674;49.722;10.892;2023-09-12T08:18:41;11.13;;;7.40;;
5303;SDS011;2674;49.722;10.892;2023-09-12T08:21:07;11.70;;;9.13;;
5303;SDS011;2674;49.722;10.892;2023-09-12T08:23:33;11.17;;;7.60;;
5303;SDS011;2674;49.722;10.892;2023-09-12T08:25:59;22.07;;;8.47;;
5303;SDS011;2674;49.722;10.892;2023-09-12T08:28:25;13.77;;;9.23;;
5303;SDS011;2674;49.722;10.892;2023-09-12T08:30:51;11.80;;;8.60;;
5303;SDS011;2674;49.722;10.892;2023-09-12T08:33:17;10.27;;;8.33;;
5303;SDS011;2674;49.722;10.892;2023-09-12T08:35:43;13.03;;;7.83;;
5303;SDS011;2674;49.722;10.892;2023-09-12T08:38:08;12.00;;;8.70;;
5303;SDS011;2674;49.722;10.892;2023-09-12T08:40:35;17.57;;;8.60;;
5303;SDS011;2674;49.722;10.892;2023-09-12T08:43:01;14.70;;;9.10;;
5303;SDS011;2674;49.722;10.892;2023-09-12T08:45:30;14.50;;;9.13;;
5303;SDS011;2674;49.722;10.892;2023-09-12T08:47:56;13.43;;;10.00;;
5303;SDS011;2674;49.722;10.892;2023-09-12T08:50:26;14.40;;;9.17;;
5303;SDS011;2674;49.722;10.892;2023-09-12T08:52:56;16.73;;;8.03;;
5303;SDS011;2674;49.722;10.892;2023-09-12T08:55:22;13.97;;;8.57;;
5303;SDS011;2674;49.722;10.892;2023-09-12T08:57:48;21.60;;;8.90;;
5303;SDS011;2674;49.722;10.892;2023-09-12T09:00:16;9.13;;;7.27;;
5303;SDS011;2674;49.722;10.892;2023-09-12T09:02:43;14.73;;;8.27;;
5303;SDS011;2674;49.722;10.892;2023-09-12T09:05:10;13.20;;;9.00;;
5303;SDS011;2674;49.722;10.892;2023-09-12T09:07:37;17.70;;;8.07;;
5303;SDS011;2674;49.722;10.892;2023-09-12T09:10:05;22.30;;;8.20;;
5303;SDS011;2674;49.722;10.892;2023-09-12T09:12:35;13.60;;;9.67;;
5303;SDS011;2674;49.722;10.892;2023-09-12T09:15:21;18.83;;;7.90;;
5303;SDS011;2674;49.722;10.892;2023-09-12T09:17:48;11.33;;;7.90;;
5303;SDS011;2674;49.722;10.892;2023-09-12T09:20:26;11.57;;;7.20;;
5303;SDS011;2674;49.722;10.892;2023-09-12T09:22:56;13.27;;;8.70;;
5303;SDS011;2674;49.722;10.892;2023-09-12T09:25:34;12.00;;;10.10;;
5303;SDS011;2674;49.722;10.892;2023-09-12T09:28:05;16.67;;;8.10;;
5303;SDS011;2674;49.722;10.892;2023-09-12T09:30:41;8.07;;;6.97;;
5303;SDS011;2674;49.722;10.892;2023-09-12T09:33:12;16.80;;;8.57;;
5303;SDS011;2674;49.722;10.892;2023-09-12T09:35:42;15.37;;;7.13;;
5303;SDS011;2674;49.722;10.892;2023-09-12T09:38:10;10.97;;;7.73;;
5303;SDS011;2674;49.722;10.892;2023-09-12T09:40:41;13.83;;;7.53;;
5303;SDS011;2674;49.722;10.892;2023-09-12T09:43:08;12.37;;;8.30;;
5303;SDS011;2674;49.722;10.892;2023-09-12T09:45:42;13.03;;;7.60;;
5303;SDS011;2674;49.722;10.892;2023-09-12T09:48:17;12.40;;;9.07;;
5303;SDS011;2674;49.722;10.892;2023-09-12T09:50:53;12.53;;;8.00;;
5303;SDS011;2674;49.722;10.892;2023-09-12T09:53:31;11.13;;;7.13;;
5303;SDS011;2674;49.722;10.892;2023-09-12T09:56:14;13.07;;;8.60;;
5303;SDS011;2674;49.722;10.892;2023-09-12T09:59:13;16.23;;;8.77;;
5303;SDS011;2674;49.722;10.892;2023-09-12T10:01:32;11.03;;;7.17;;
5303;SDS011;2674;49.722;10.892;2023-09-12T10:04:01;7.87;;;6.37;;
5303;SDS011;2674;49.722;10.892;2023-09-12T10:06:28;8.30;;;7.00;;
5303;SDS011;2674;49.722;10.892;2023-09-12T10:08:56;13.73;;;7.40;;
5303;SDS011;2674;49.722;10.892;2023-09-12T10:11:24;12.90;;;7.53;;
5303;SDS011;2674;49.722;10.892;2023-09-12T10:13:53;19.53;;;7.50;;
5303;SDS011;2674;49.722;10.892;2023-09-12T10:16:24;11.33;;;7.53;;
5303;SDS011;2674;49.722;10.892;2023-09-12T10:21:35;12.77;;;7.40;;
5303;SDS011;2674;49.722;10.892;2023-09-12T10:24:05;11.80;;;6.80;;
5303;SDS011;2674;49.722;10.892;2023-09-12T10:26:32;8.27;;;6.33;;
5303;SDS011;2674;49.722;10.892;2023-09-12T10:29:00;9.13;;;6.10;;
5303;SDS011;2674;49.722;10.892;2023-09-12T10:31:27;9.43;;;5.80;;
5303;SDS011;2674;49.722;10.892;2023-09-12T10:33:54;10.37;;;6.07;;
5303;SDS011;2674;49.722;10.892;2023-09-12T10:36:20;12.87;;;7.47;;
5303;SDS011;2674;49.722;10.892;2023-09-12T10:38:48;8.10;;;5.50;;
5303;SDS011;2674;49.722;10.892;2023-09-12T10:41:16;8.07;;;5.70;;
5303;SDS011;2674;49.722;10.892;2023-09-12T10:43:42;8.10;;;5.77;;
5303;SDS011;2674;49.722;10.892;2023-09-12T10:46:14;9.67;;;5.23;;
5303;SDS011;2674;49.722;10.892;2023-09-12T10:48:40;7.70;;;6.90;;
5303;SDS011;2674;49.722;10.892;2023-09-12T10:51:07;11.70;;;6.30;;
5303;SDS011;2674;49.722;10.892;2023-09-12T10:53:35;6.60;;;5.90;;
5303;SDS011;2674;49.722;10.892;2023-09-12T10:56:22;11.70;;;6.90;;
5303;SDS011;2674;49.722;10.892;2023-09-12T11:01:43;16.70;;;6.57;;
5303;SDS011;2674;49.722;10.892;2023-09-12T11:06:52;8.73;;;5.57;;
5303;SDS011;2674;49.722;10.892;2023-09-12T11:09:21;12.37;;;6.77;;
5303;SDS011;2674;49.722;10.892;2023-09-12T11:14:26;9.20;;;6.00;;
5303;SDS011;2674;49.722;10.892;2023-09-12T11:19:43;10.93;;;6.97;;
5303;SDS011;2674;49.722;10.892;2023-09-12T11:22:24;11.90;;;6.70;;
5303;SDS011;2674;49.722;10.892;2023-09-12T11:24:56;8.37;;;5.60;;
5303;SDS011;2674;49.722;10.892;2023-09-12T11:27:23;10.30;;;7.00;;
5303;SDS011;2674;49.722;10.892;2023-09-12T11:29:50;15.00;;;5.93;;
5303;SDS011;2674;49.722;10.892;2023-09-12T11:32:30;7.23;;;5.47;;
5303;SDS011;2674;49.722;10.892;2023-09-12T11:34:57;9.53;;;5.93;;
5303;SDS011;2674;49.722;10.892;2023-09-12T11:37:29;9.30;;;6.37;;
5303;SDS011;2674;49.722;10.892;2023-09-12T11:39:55;9.27;;;5.83;;
5303;SDS011;2674;49.722;10.892;2023-09-12T11:42:22;8.43;;;5.73;;
5303;SDS011;2674;49.722;10.892;2023-09-12T11:44:51;7.00;;;5.90;;
5303;SDS011;2674;49.722;10.892;2023-09-12T11:47:17;10.40;;;5.57;;
5303;SDS011;2674;49.722;10.892;2023-09-12T11:49:43;8.00;;;5.97;;
5303;SDS011;2674;49.722;10.892;2023-09-12T11:54:38;7.13;;;5.43;;
5303;SDS011;2674;49.722;10.892;2023-09-12T11:57:06;7.53;;;6.00;;
5303;SDS011;2674;49.722;10.892;2023-09-12T11:59:36;6.27;;;5.63;;
5303;SDS011;2674;49.722;10.892;2023-09-12T12:02:05;10.73;;;5.80;;
5303;SDS011;2674;49.722;10.892;2023-09-12T12:04:32;20.43;;;5.90;;
5303;SDS011;2674;49.722;10.892;2023-09-12T12:06:59;9.53;;;6.60;;
5303;SDS011;2674;49.722;10.892;2023-09-12T12:09:26;9.90;;;6.27;;
5303;SDS011;2674;49.722;10.892;2023-09-12T12:11:52;8.30;;;5.97;;
5303;SDS011;2674;49.722;10.892;2023-09-12T12:14:18;7.70;;;5.37;;
5303;SDS011;2674;49.722;10.892;2023-09-12T12:16:45;6.63;;;5.47;;
5303;SDS011;2674;49.722;10.892;2023-09-12T12:19:14;12.77;;;5.60;;
5303;SDS011;2674;49.722;10.892;2023-09-12T12:21:41;14.60;;;4.77;;
5303;SDS011;2674;49.722;10.892;2023-09-12T12:24:07;7.53;;;4.57;;
5303;SDS011;2674;49.722;10.892;2023-09-12T12:30:03;8.60;;;4.97;;
5303;SDS011;2674;49.722;10.892;2023-09-12T12:57:01;10.53;;;6.50;;
5303;SDS011;2674;49.722;10.892;2023-09-12T12:59:27;9.80;;;6.00;;
5303;SDS011;2674;49.722;10.892;2023-09-12T13:01:55;10.03;;;6.30;;
5303;SDS011;2674;49.722;10.892;2023-09-12T13:04:20;11.00;;;5.37;;
5303;SDS011;2674;49.722;10.892;2023-09-12T13:06:48;12.43;;;5.67;;
5303;SDS011;2674;49.722;10.892;2023-09-12T13:09:14;12.80;;;6.37;;
5303;SDS011;2674;49.722;10.892;2023-09-12T13:11:41;10.60;;;6.53;;
5303;SDS011;2674;49.722;10.892;2023-09-12T13:14:08;8.33;;;5.80;;
5303;SDS011;2674;49.722;10.892;2023-09-12T13:16:34;10.60;;;6.30;;
5303;SDS011;2674;49.722;10.892;2023-09-12T13:19:00;9.90;;;5.53;;
5303;SDS011;2674;49.722;10.892;2023-09-12T13:21:26;8.40;;;5.23;;
5303;SDS011;2674;49.722;10.892;2023-09-12T13:23:53;20.73;;;6.10;;
5303;SDS011;2674;49.722;10.892;2023-09-12T13:26:19;10.57;;;4.87;;
5303;SDS011;2674;49.722;10.892;2023-09-12T13:28:44;15.93;;;6.00;;
5303;SDS011;2674;49.722;10.892;2023-09-12T13:31:10;13.90;;;6.50;;
5303;SDS011;2674;49.722;10.892;2023-09-12T13:33:37;8.20;;;6.10;;
5303;SDS011;2674;49.722;10.892;2023-09-12T13:36:03;6.10;;;5.50;;
5303;SDS011;2674;49.722;10.892;2023-09-12T13:38:29;9.90;;;5.87;;
5303;SDS011;2674;49.722;10.892;2023-09-12T13:40:55;10.10;;;5.93;;
5303;SDS011;2674;49.722;10.892;2023-09-12T13:43:21;6.83;;;5.70;;
5303;SDS011;2674;49.722;10.892;2023-09-12T13:45:48;14.10;;;5.63;;
5303;SDS011;2674;49.722;10.892;2023-09-12T13:48:13;10.90;;;6.53;;
5303;SDS011;2674;49.722;10.892;2023-09-12T13:50:39;9.00;;;6.00;;
5303;SDS011;2674;49.722;10.892;2023-09-12T13:53:08;15.53;;;6.63;;
5303;SDS011;2674;49.722;10.892;2023-09-12T13:55:34;11.30;;;6.50;;
5303;SDS011;2674;49.722;10.892;2023-09-12T13:58:04;23.23;;;5.87;;
5303;SDS011;2674;49.722;10.892;2023-09-12T14:00:31;7.30;;;5.97;;
5303;SDS011;2674;49.722;10.892;2023-09-12T14:02:58;8.57;;;6.30;;
5303;SDS011;2674;49.722;10.892;2023-09-12T14:05:24;13.40;;;5.93;;
5303;SDS011;2674;49.722;10.892;2023-09-12T14:07:53;10.90;;;6.43;;
5303;SDS011;2674;49.722;10.892;2023-09-12T14:10:19;11.43;;;6.70;;
5303;SDS011;2674;49.722;10.892;2023-09-12T14:12:44;9.07;;;6.23;;
5303;SDS011;2674;49.722;10.892;2023-09-12T14:15:11;8.73;;;6.20;;
5303;SDS011;2674;49.722;10.892;2023-09-12T14:17:39;17.63;;;7.10;;
5303;SDS011;2674;49.722;10.892;2023-09-12T14:20:05;13.73;;;6.23;;
5303;SDS011;2674;49.722;10.892;2023-09-12T14:22:31;11.27;;;6.00;;
5303;SDS011;2674;49.722;10.892;2023-09-12T14:24:57;9.37;;;7.13;;
5303;SDS011;2674;49.722;10.892;2023-09-12T14:27:23;14.77;;;6.27;;
5303;SDS011;2674;49.722;10.892;2023-09-12T14:29:49;14.87;;;6.40;;
5303;SDS011;2674;49.722;10.892;2023-09-12T14:32:16;8.43;;;6.47;;
5303;SDS011;2674;49.722;10.892;2023-09-12T14:34:41;10.43;;;5.97;;
5303;SDS011;2674;49.722;10.892;2023-09-12T14:37:07;10.90;;;7.20;;
5303;SDS011;2674;49.722;10.892;2023-09-12T14:39:33;10.00;;;6.20;;
5303;SDS011;2674;49.722;10.892;2023-09-12T14:41:59;11.00;;;6.63;;
5303;SDS011;2674;49.722;10.892;2023-09-12T14:44:28;13.07;;;7.10;;
5303;SDS011;2674;49.722;10.892;2023-09-12T14:46:57;8.67;;;6.70;;
5303;SDS011;2674;49.722;10.892;2023-09-12T14:49:23;9.03;;;5.73;;
5303;SDS011;2674;49.722;10.892;2023-09-12T14:51:49;9.27;;;6.30;;
5303;SDS011;2674;49.722;10.892;2023-09-12T14:54:15;6.60;;;5.67;;
5303;SDS011;2674;49.722;10.892;2023-09-12T14:56:41;11.33;;;6.60;;
5303;SDS011;2674;49.722;10.892;2023-09-12T14:59:07;17.73;;;6.23;;
5303;SDS011;2674;49.722;10.892;2023-09-12T15:01:38;9.33;;;6.13;;
5303;SDS011;2674;49.722;10.892;2023-09-12T15:04:04;7.57;;;6.17;;
5303;SDS011;2674;49.722;10.892;2023-09-12T15:06:29;16.50;;;6.90;;
5303;SDS011;2674;49.722;10.892;2023-09-12T15:08:58;7.00;;;6.30;;
5303;SDS011;2674;49.722;10.892;2023-09-12T15:11:24;10.57;;;6.80;;
5303;SDS011;2674;49.722;10.892;2023-09-12T15:13:50;9.50;;;6.83;;
5303;SDS011;2674;49.722;10.892;2023-09-12T15:16:16;9.20;;;6.50;;
5303;SDS011;2674;49.722;10.892;2023-09-12T15:18:42;13.20;;;6.13;;
5303;SDS011;2674;49.722;10.892;2023-09-12T15:21:07;15.03;;;6.80;;
5303;SDS011;2674;49.722;10.892;2023-09-12T15:23:33;9.33;;;6.77;;
5303;SDS011;2674;49.722;10.892;2023-09-12T15:25:59;8.10;;;6.37;;
5303;SDS011;2674;49.722;10.892;2023-09-12T15:28:25;13.80;;;6.20;;
5303;SDS011;2674;49.722;10.892;2023-09-12T15:30:51;14.83;;;6.37;;
5303;SDS011;2674;49.722;10.892;2023-09-12T15:33:16;11.17;;;6.70;;
5303;SDS011;2674;49.722;10.892;2023-09-12T15:35:42;13.20;;;6.83;;
5303;SDS011;2674;49.722;10.892;2023-09-12T15:38:08;9.10;;;5.80;;